Portada
METAR-TAF:

METAR-TAF

Aeroports :

Midway, Estats Units d'Amèrica

latitud: 28-13N, longitud: 177-22W, altitud: 4 m

Observació

L'informe es va fer fa 41 minuts, a les 15:56 UTC
Vent 17 kt del Est
Temperatura 19°C
Humitat 68%
Pressió 1026 hPa
Visibilitat: 16.1 km
Cel cobert a una alçada de 3100 ft

METAR: PMDY 181556Z AUTO 09017KT 10SM OVC031 19/13 A3031 RMK AO2 SLP262 T01940133

Hora: 06:37 (16:37 UTC)

Pronòstic

L'informe es va fer fa 5 hores i 0 minuts, a les 11:37 UTC
Pronòstic vàlid del 18 a les 12 UTC al 19 a les 12 UTC
Vent 11 kt del Est/Nord-Est
Visibilitat: 10 km
Cel cobert a una alçada de 3500 ft
A partir de les 18 a les 2000 UTC
Vent 13 kt del Est
Visibilitat: 10 km
Núvols disperses a una alçada de 3000 ft
A partir de les 19 a les 0600 UTC
Vent 8 kt del Est/Sud-Est
Visibilitat: 10 km
Núvols disperses a una alçada de 3000 ft

TAF: PMDY 181137Z 1812/1912 06011KT P6SM OVC035 FM182000 10013KT P6SM SCT030 FM190600 11008KT P6SM SCT030

Observacions i pronòstics meteorològics de més de 4000 aeroports (METAR i TAF).

Les estacions disponibles són els punts grocs i vermells al mapa.

Posi el ratolí al punt desitjat per veure el nom de l'estació.

Feu clic per veure les observacions i els pronòstics meteorològics.

Per canviar el mapa: feu clic els botons verds amb una creu de color negre per apropar; al botó verd amb un guió per allunyar la imatge; o en les fletxes verdes per a mapes adjacents.


METAR-TAF: